Airport View

Enter AWOS ICAO identifier for current METAR.

ex. KFNL

KRYN 010253Z 23004KT 10SM CLR 28/M02 A3001 RMK LAST

1 Oct 2020 12:39

Frequency: 133.35

Phone: 520-578-0269

Other Area AWOS: KTUS - KDMA - KAVQ - KOLS

TAF KTUS 011120Z 0112/0212 15007KT P6SM SKC FM012100 34007KT P6SM SKC FM020700 14007KT P6SM SKC